createdAt,value
2022-12-20T00:00:12.481Z,96204
2022-12-20T00:01:20.174Z,96198
2022-12-20T00:02:29.901Z,96189
2022-12-20T00:03:39.549Z,96182
2022-12-20T00:04:48.215Z,96187
2022-12-20T00:05:57.875Z,96189
2022-12-20T00:07:06.552Z,96181
2022-12-20T00:08:16.217Z,96187
2022-12-20T00:09:24.875Z,96189
2022-12-20T00:10:32.517Z,96177
2022-12-20T00:11:41.205Z,96182
2022-12-20T00:12:50.857Z,96178
2022-12-20T00:13:59.524Z,96174
2022-12-20T00:15:08.268Z,96176
2022-12-20T00:16:17.938Z,96186
2022-12-20T00:17:26.616Z,96182
2022-12-20T00:18:36.255Z,96184
2022-12-20T00:19:45.915Z,96183
2022-12-20T00:20:54.592Z,96186
2022-12-20T00:22:04.264Z,96184
2022-12-20T00:23:13.923Z,96180
2022-12-20T00:24:26.202Z,96183
2022-12-20T00:25:33.249Z,96181
2022-12-20T00:26:42.940Z,96184
2022-12-20T00:27:52.626Z,96184
2022-12-20T00:29:00.302Z,96184
2022-12-20T00:30:09.971Z,96175
2022-12-20T00:31:19.632Z,96178
2022-12-20T00:32:28.343Z,96175
2022-12-20T00:33:38.069Z,96170
2022-12-20T00:34:46.668Z,96172
2022-12-20T00:35:56.358Z,96171
2022-12-20T00:37:06.010Z,96169
2022-12-20T00:38:14.770Z,96168
2022-12-20T00:39:24.402Z,96171
2022-12-20T00:40:34.132Z,96168
2022-12-20T00:41:42.776Z,96171
2022-12-20T00:42:51.435Z,96173
2022-12-20T00:44:00.146Z,96178
2022-12-20T00:45:08.786Z,96175
2022-12-20T00:46:18.498Z,96175
2022-12-20T00:47:28.104Z,96168
2022-12-20T00:48:37.766Z,96164
2022-12-20T00:49:45.418Z,96164
2022-12-20T00:50:54.069Z,96161
2022-12-20T00:52:03.759Z,96158
2022-12-20T00:53:11.396Z,96160
2022-12-20T00:54:22.075Z,96160
2022-12-20T00:55:30.746Z,96160
2022-12-20T00:56:40.460Z,96160
2022-12-20T00:57:50.120Z,96165
2022-12-20T00:58:58.783Z,96166
2022-12-20T01:00:06.449Z,96169
2022-12-20T01:01:42.963Z,96174
2022-12-20T01:02:50.686Z,96173
2022-12-20T01:03:59.262Z,96173
2022-12-20T01:05:08.937Z,96177
2022-12-20T01:06:17.648Z,96177
2022-12-20T01:07:26.357Z,96180
2022-12-20T01:08:36.028Z,96184
2022-12-20T01:09:44.758Z,96187
2022-12-20T01:10:54.460Z,96182
2022-12-20T01:12:03.181Z,96182
2022-12-20T01:13:11.865Z,96182
2022-12-20T01:14:21.545Z,96175
2022-12-20T01:15:30.234Z,96170
2022-12-20T01:16:39.998Z,96175
2022-12-20T01:17:49.600Z,96167
2022-12-20T01:18:59.337Z,96169
2022-12-20T01:20:09.059Z,96168
2022-12-20T01:21:17.767Z,96169
2022-12-20T01:22:26.459Z,96167
2022-12-20T01:23:36.173Z,96159
2022-12-20T01:24:44.913Z,96163
2022-12-20T01:25:54.595Z,96163
2022-12-20T01:27:03.355Z,96165
2022-12-20T01:28:12.055Z,96164
2022-12-20T01:29:21.741Z,96163
2022-12-20T01:30:29.449Z,96162
2022-12-20T01:31:38.192Z,96161
2022-12-20T01:32:47.795Z,96161
2022-12-20T01:33:55.493Z,96157
2022-12-20T01:35:04.166Z,96157
2022-12-20T01:36:12.872Z,96157
2022-12-20T01:37:21.541Z,96153
2022-12-20T01:38:31.255Z,96154
2022-12-20T01:39:39.937Z,96154
2022-12-20T01:40:49.606Z,96146
2022-12-20T01:41:59.376Z,96143
2022-12-20T01:43:07.047Z,96142
2022-12-20T01:44:16.779Z,96139
2022-12-20T01:45:26.424Z,96142
2022-12-20T01:46:35.225Z,96143
2022-12-20T01:47:44.895Z,96144
2022-12-20T01:48:52.620Z,96146
2022-12-20T01:50:01.285Z,96143
2022-12-20T01:51:10.974Z,96146
2022-12-20T01:52:20.658Z,96149
2022-12-20T01:53:29.343Z,96154
2022-12-20T01:54:38.027Z,96152
2022-12-20T01:55:47.713Z,96158
2022-12-20T01:56:57.401Z,96153
2022-12-20T01:58:06.086Z,96161
2022-12-20T01:59:15.799Z,96165
2022-12-20T02:00:25.661Z,96161
2022-12-20T02:01:33.539Z,96156
2022-12-20T02:02:42.420Z,96157
2022-12-20T02:03:52.738Z,96154
2022-12-20T02:05:02.502Z,96150
2022-12-20T02:06:10.345Z,96150
2022-12-20T02:07:20.202Z,96153
2022-12-20T02:08:30.052Z,96154
2022-12-20T02:09:39.118Z,96152
2022-12-20T02:10:48.950Z,96149
2022-12-20T02:11:58.752Z,96146
2022-12-20T02:13:08.529Z,96144
2022-12-20T02:14:18.302Z,96142
2022-12-20T02:15:27.269Z,96139
2022-12-20T02:16:36.208Z,96139
2022-12-20T02:17:46.355Z,96141
2022-12-20T02:18:55.120Z,96144
2022-12-20T02:20:04.920Z,96144
2022-12-20T02:21:13.767Z,96142
2022-12-20T02:22:22.549Z,96137
2022-12-20T02:23:32.383Z,96148
2022-12-20T02:24:41.348Z,96142
2022-12-20T02:25:50.141Z,96138
2022-12-20T02:26:59.949Z,96141
2022-12-20T02:28:09.763Z,96134
2022-12-20T02:29:18.556Z,96139
2022-12-20T02:30:28.359Z,96144
2022-12-20T02:31:37.207Z,96141
2022-12-20T02:32:46.952Z,96141
2022-12-20T02:33:56.790Z,96142
2022-12-20T02:35:06.568Z,96138
2022-12-20T02:36:16.315Z,96137
2022-12-20T02:37:25.639Z,96144
2022-12-20T02:38:34.909Z,96140
2022-12-20T02:39:43.827Z,96146
2022-12-20T02:40:52.709Z,96150
2022-12-20T02:42:02.431Z,96152
2022-12-20T02:43:12.256Z,96153
2022-12-20T02:44:22.043Z,96149
2022-12-20T02:45:30.835Z,96143
2022-12-20T02:46:40.681Z,96145
2022-12-20T02:47:50.430Z,96141
2022-12-20T02:48:59.145Z,96143
2022-12-20T02:50:07.917Z,96141
2022-12-20T02:51:17.779Z,96140
2022-12-20T02:52:27.469Z,96139
2022-12-20T02:53:38.393Z,96146
2022-12-20T02:54:48.238Z,96143
2022-12-20T02:55:56.994Z,96144
2022-12-20T02:57:06.743Z,96141
2022-12-20T02:58:15.465Z,96139
2022-12-20T02:59:24.265Z,96134
2022-12-20T03:00:34.024Z,96131
2022-12-20T03:01:43.845Z,96127
2022-12-20T03:02:53.599Z,96127
2022-12-20T03:04:01.320Z,96127
2022-12-20T03:05:10.083Z,96124
2022-12-20T03:06:19.893Z,96126
2022-12-20T03:07:27.624Z,96120
2022-12-20T03:08:36.512Z,96123
2022-12-20T03:09:45.321Z,96122
2022-12-20T03:10:55.062Z,96118
2022-12-20T03:12:05.039Z,96120
2022-12-20T03:13:14.755Z,96111
2022-12-20T03:14:24.459Z,96109
2022-12-20T03:15:34.159Z,96108
2022-12-20T03:16:41.899Z,96107
2022-12-20T03:17:51.588Z,96109
2022-12-20T03:19:01.229Z,96116
2022-12-20T03:20:10.984Z,96122
2022-12-20T03:21:20.649Z,96122
2022-12-20T03:22:29.370Z,96130
2022-12-20T03:23:38.080Z,96132
2022-12-20T03:24:47.998Z,96133
2022-12-20T03:25:56.730Z,96129
2022-12-20T03:27:06.412Z,96129
2022-12-20T03:28:15.307Z,96128
2022-12-20T03:29:25.078Z,96134
2022-12-20T03:30:34.898Z,96134
2022-12-20T03:31:43.585Z,96135
2022-12-20T03:32:53.401Z,96137
2022-12-20T03:34:03.236Z,96130
2022-12-20T03:35:12.031Z,96128
2022-12-20T03:36:20.750Z,96124
2022-12-20T03:37:30.472Z,96122
2022-12-20T03:38:39.225Z,96119
2022-12-20T03:39:48.967Z,96116
2022-12-20T03:40:57.678Z,96116
2022-12-20T03:42:06.436Z,96109
2022-12-20T03:43:17.139Z,96108
2022-12-20T03:44:25.919Z,96104
2022-12-20T03:45:33.611Z,96099
2022-12-20T03:46:42.407Z,96103
2022-12-20T03:47:52.011Z,96096
2022-12-20T03:49:01.786Z,96096
2022-12-20T03:50:11.515Z,96089
2022-12-20T03:51:20.238Z,96085
2022-12-20T03:52:29.963Z,96087
2022-12-20T03:53:37.629Z,96075
2022-12-20T03:54:46.408Z,96079
2022-12-20T03:55:55.124Z,96080
2022-12-20T03:57:03.853Z,96081
2022-12-20T03:58:13.535Z,96079
2022-12-20T03:59:22.286Z,96083
2022-12-20T04:00:31.025Z,96075
2022-12-20T04:01:40.926Z,96070
2022-12-20T04:02:48.711Z,96082
2022-12-20T04:03:57.458Z,96081
2022-12-20T04:05:06.063Z,96082
2022-12-20T04:06:14.881Z,96080
2022-12-20T04:07:24.622Z,96066
2022-12-20T04:08:34.448Z,96073
2022-12-20T04:09:43.227Z,96078
2022-12-20T04:10:52.950Z,96078
2022-12-20T04:12:00.727Z,96088
2022-12-20T04:13:09.529Z,96097
2022-12-20T04:14:18.395Z,96096
2022-12-20T04:15:28.254Z,96096
2022-12-20T04:16:37.987Z,96097
2022-12-20T04:17:46.774Z,96097
2022-12-20T04:18:56.613Z,96093
2022-12-20T04:20:06.399Z,96099
2022-12-20T04:21:15.209Z,96098
2022-12-20T04:22:24.919Z,96104
2022-12-20T04:23:33.786Z,96101
2022-12-20T04:24:42.544Z,96101
2022-12-20T04:25:52.310Z,96101
2022-12-20T04:27:01.212Z,96095
2022-12-20T04:28:09.907Z,96092
2022-12-20T04:29:19.807Z,96095
2022-12-20T04:30:27.631Z,96096
2022-12-20T04:31:37.601Z,96095
2022-12-20T04:32:47.228Z,96083
2022-12-20T04:33:57.008Z,96085
2022-12-20T04:35:06.764Z,96087
2022-12-20T04:36:14.573Z,96080
2022-12-20T04:37:24.380Z,96088
2022-12-20T04:38:34.120Z,96082
2022-12-20T04:39:43.898Z,96081
2022-12-20T04:40:53.692Z,96081
2022-12-20T04:42:02.580Z,96085
2022-12-20T04:43:12.344Z,96081
2022-12-20T04:44:21.085Z,96080
2022-12-20T04:45:29.834Z,96079
2022-12-20T04:46:39.676Z,96080
2022-12-20T04:47:48.393Z,96073
2022-12-20T04:48:59.466Z,96083
2022-12-20T04:50:07.894Z,96080
2022-12-20T04:51:17.636Z,96076
2022-12-20T04:52:26.516Z,96078
2022-12-20T04:53:35.281Z,96081
2022-12-20T04:54:45.026Z,96084
2022-12-20T04:55:54.807Z,96080
2022-12-20T04:57:04.529Z,96080
2022-12-20T04:58:13.293Z,96079
2022-12-20T04:59:23.007Z,96076
2022-12-20T05:00:30.824Z,96079
2022-12-20T05:01:40.569Z,96078
2022-12-20T05:02:49.417Z,96079
2022-12-20T05:03:59.174Z,96070
2022-12-20T05:05:08.748Z,96072
2022-12-20T05:06:17.525Z,96068
2022-12-20T05:07:26.223Z,96067
2022-12-20T05:08:36.021Z,96062
2022-12-20T05:09:43.830Z,96059
2022-12-20T05:10:53.536Z,96053
2022-12-20T05:12:02.346Z,96045
2022-12-20T05:13:12.148Z,96052
2022-12-20T05:14:21.845Z,96046
2022-12-20T05:15:29.617Z,96042
2022-12-20T05:16:38.374Z,96040
2022-12-20T05:17:48.055Z,96040
2022-12-20T05:18:57.661Z,96041
2022-12-20T05:20:06.382Z,96038
2022-12-20T05:21:15.149Z,96037
2022-12-20T05:22:23.821Z,96039
2022-12-20T05:23:33.508Z,96042
2022-12-20T05:24:42.170Z,96042
2022-12-20T05:25:51.857Z,96046
2022-12-20T05:27:01.580Z,96044
2022-12-20T05:28:10.269Z,96036
2022-12-20T05:29:19.962Z,96033
2022-12-20T05:30:28.655Z,96037
2022-12-20T05:31:38.451Z,96038
2022-12-20T05:32:48.131Z,96042
2022-12-20T05:33:57.260Z,96040
2022-12-20T05:35:05.936Z,96038
2022-12-20T05:36:15.686Z,96036
2022-12-20T05:37:24.331Z,96035
2022-12-20T05:38:34.028Z,96034
2022-12-20T05:39:42.726Z,96029
2022-12-20T05:40:51.453Z,96031
2022-12-20T05:42:01.200Z,96030
2022-12-20T05:43:09.851Z,96022
2022-12-20T05:44:19.636Z,96021
2022-12-20T05:45:29.331Z,96020
2022-12-20T05:46:37.093Z,96014
2022-12-20T05:47:46.713Z,96008
2022-12-20T05:48:55.382Z,96010
2022-12-20T05:50:04.127Z,96011
2022-12-20T05:51:14.805Z,96010
2022-12-20T05:52:22.503Z,96005
2022-12-20T05:53:31.185Z,96006
2022-12-20T05:54:39.835Z,96011
2022-12-20T05:55:48.562Z,96006
2022-12-20T05:56:57.236Z,96005
2022-12-20T05:58:07.774Z,96006
2022-12-20T05:59:17.542Z,96008
2022-12-20T06:00:27.231Z,96010
2022-12-20T06:01:37.101Z,96001
2022-12-20T06:02:45.854Z,95995
2022-12-20T06:03:55.425Z,95989
2022-12-20T06:05:03.004Z,95985
2022-12-20T06:06:14.694Z,95989
2022-12-20T06:07:22.432Z,95995
2022-12-20T06:08:31.073Z,96002
2022-12-20T06:09:40.773Z,96000
2022-12-20T06:10:50.435Z,96003
2022-12-20T06:12:00.109Z,96008
2022-12-20T06:13:09.903Z,96008
2022-12-20T06:14:19.636Z,96018
2022-12-20T06:15:29.287Z,96012
2022-12-20T06:16:38.026Z,96012
2022-12-20T06:17:46.663Z,96008
2022-12-20T06:18:56.381Z,96007
2022-12-20T06:20:04.137Z,96006
2022-12-20T06:21:12.765Z,96007
2022-12-20T06:22:22.453Z,96007
2022-12-20T06:23:32.167Z,96014
2022-12-20T06:24:47.835Z,96012
2022-12-20T06:25:51.614Z,96015
2022-12-20T06:27:01.263Z,96016
2022-12-20T06:28:10.958Z,96010
2022-12-20T06:29:18.605Z,96014
2022-12-20T06:30:33.528Z,96011
2022-12-20T06:31:37.980Z,96007
2022-12-20T06:32:46.716Z,96004
2022-12-20T06:33:55.383Z,96008
2022-12-20T06:35:04.051Z,96008
2022-12-20T06:36:12.729Z,96007
2022-12-20T06:37:23.397Z,96001
2022-12-20T06:38:32.044Z,96001
2022-12-20T06:39:41.706Z,96003
2022-12-20T06:40:50.360Z,96011
2022-12-20T06:41:59.154Z,96005
2022-12-20T06:43:09.030Z,96007
2022-12-20T06:44:17.704Z,96008
2022-12-20T06:45:26.433Z,96005
2022-12-20T06:46:37.091Z,96006
2022-12-20T06:47:46.765Z,96005
2022-12-20T06:48:56.459Z,96009
2022-12-20T06:50:04.111Z,96011
2022-12-20T06:51:12.777Z,96013
2022-12-20T06:52:22.462Z,96011
2022-12-20T06:53:32.159Z,96010
2022-12-20T06:54:40.826Z,96014
2022-12-20T06:55:50.616Z,96013
2022-12-20T06:56:59.258Z,96009
2022-12-20T06:58:09.916Z,96007
2022-12-20T06:59:18.638Z,96009
2022-12-20T07:00:28.295Z,96008
2022-12-20T07:01:38.076Z,96007
2022-12-20T07:02:47.802Z,96003
2022-12-20T07:03:55.325Z,96009
2022-12-20T07:05:05.009Z,96004
2022-12-20T07:06:13.709Z,96003
2022-12-20T07:07:23.390Z,96000
2022-12-20T07:08:31.077Z,95995
2022-12-20T07:09:40.744Z,95994
2022-12-20T07:10:50.556Z,95996
2022-12-20T07:11:58.249Z,95998
2022-12-20T07:13:07.946Z,95996
2022-12-20T07:14:16.650Z,95999
2022-12-20T07:15:25.315Z,96002
2022-12-20T07:16:36.064Z,96003
2022-12-20T07:17:44.672Z,95998
2022-12-20T07:18:54.374Z,95999
2022-12-20T07:20:07.660Z,95998
2022-12-20T07:21:14.670Z,95998
2022-12-20T07:22:23.402Z,96000
2022-12-20T07:23:33.081Z,95996
2022-12-20T07:24:42.779Z,95997
2022-12-20T07:25:52.454Z,95993
2022-12-20T07:27:00.109Z,95990
2022-12-20T07:28:08.896Z,95994
2022-12-20T07:29:18.554Z,96002
2022-12-20T07:30:29.226Z,95997
2022-12-20T07:31:37.947Z,95995
2022-12-20T07:32:47.556Z,95996
2022-12-20T07:33:57.293Z,95990
2022-12-20T07:35:06.960Z,95990
2022-12-20T07:36:14.637Z,95989
2022-12-20T07:37:23.358Z,95983
2022-12-20T07:38:33.028Z,95989
2022-12-20T07:39:41.754Z,95990
2022-12-20T07:40:50.417Z,95988
2022-12-20T07:42:00.189Z,95987
2022-12-20T07:43:08.785Z,95993
2022-12-20T07:44:18.452Z,95993
2022-12-20T07:45:26.124Z,95996
2022-12-20T07:46:34.990Z,95992
2022-12-20T07:47:44.485Z,95995
2022-12-20T07:48:52.157Z,96002
2022-12-20T07:50:01.887Z,96004
2022-12-20T07:51:11.561Z,96008
2022-12-20T07:52:21.231Z,96004
2022-12-20T07:53:31.944Z,96000
2022-12-20T07:54:39.675Z,96008
2022-12-20T07:55:48.333Z,96006
2022-12-20T07:56:58.020Z,96010
2022-12-20T07:58:05.693Z,96012
2022-12-20T07:59:15.330Z,96010
2022-12-20T08:00:24.010Z,96004
2022-12-20T08:01:32.795Z,96006
2022-12-20T08:02:42.633Z,96012
2022-12-20T08:03:51.129Z,96006
2022-12-20T08:04:59.775Z,96013
2022-12-20T08:06:09.482Z,96009
2022-12-20T08:07:18.152Z,96013
2022-12-20T08:08:26.856Z,96021
2022-12-20T08:09:35.517Z,96019
2022-12-20T08:10:44.169Z,96020
2022-12-20T08:11:53.880Z,96020
2022-12-20T08:13:01.527Z,96021
2022-12-20T08:14:11.242Z,96021
2022-12-20T08:15:20.939Z,96017
2022-12-20T08:16:28.633Z,96024
2022-12-20T08:17:37.320Z,96019
2022-12-20T08:18:46.958Z,96017
2022-12-20T08:19:56.642Z,96020
2022-12-20T08:21:06.310Z,96015
2022-12-20T08:22:15.017Z,96012
2022-12-20T08:23:24.656Z,96013
2022-12-20T08:24:34.343Z,96011
2022-12-20T08:25:43.024Z,96012
2022-12-20T08:26:52.688Z,96014
2022-12-20T08:28:01.363Z,96010
2022-12-20T08:29:11.040Z,96014
2022-12-20T08:30:20.713Z,96010
2022-12-20T08:31:29.501Z,96007
2022-12-20T08:32:39.043Z,96010
2022-12-20T08:33:48.749Z,96009
2022-12-20T08:34:57.411Z,96010
2022-12-20T08:36:06.080Z,96014
2022-12-20T08:37:15.095Z,96008
2022-12-20T08:38:23.386Z,95999
2022-12-20T08:39:33.007Z,95998
2022-12-20T08:40:42.667Z,96001
2022-12-20T08:41:52.347Z,96004
2022-12-20T08:43:03.665Z,96005
2022-12-20T08:44:09.661Z,96007
2022-12-20T08:45:19.394Z,96013
2022-12-20T08:46:28.123Z,96012
2022-12-20T08:47:36.716Z,96010
2022-12-20T08:48:46.382Z,96015
2022-12-20T08:49:56.089Z,96012
2022-12-20T08:51:05.794Z,96012
2022-12-20T08:52:13.497Z,96013
2022-12-20T08:53:23.129Z,96013
2022-12-20T08:54:32.847Z,96003
2022-12-20T08:55:41.484Z,96016
2022-12-20T08:56:51.161Z,96017
2022-12-20T08:57:59.831Z,96018
2022-12-20T08:59:09.583Z,96019
2022-12-20T09:00:19.282Z,96018
2022-12-20T09:01:28.048Z,96016
2022-12-20T09:02:36.730Z,96005
2022-12-20T09:03:46.451Z,96010
2022-12-20T09:04:54.928Z,96006
2022-12-20T09:06:03.642Z,96006
2022-12-20T09:07:13.303Z,96004
2022-12-20T09:08:22.972Z,96005
2022-12-20T09:09:32.632Z,96006
2022-12-20T09:10:40.332Z,96004
2022-12-20T09:11:49.998Z,96003
2022-12-20T09:13:00.655Z,96005
2022-12-20T09:14:09.379Z,96004
2022-12-20T09:15:18.037Z,96001
2022-12-20T09:16:26.826Z,95995
2022-12-20T09:17:36.451Z,95997
2022-12-20T09:18:46.115Z,95996
2022-12-20T09:19:53.783Z,95991
2022-12-20T09:21:02.443Z,95986
2022-12-20T09:22:12.107Z,95985
2022-12-20T09:23:20.791Z,95986
2022-12-20T09:24:29.441Z,95986
2022-12-20T09:25:38.127Z,95990
2022-12-20T09:26:49.310Z,95983
2022-12-20T09:27:58.446Z,95979
2022-12-20T09:29:06.168Z,95977
2022-12-20T09:30:15.821Z,95973
2022-12-20T09:31:25.588Z,95973
2022-12-20T09:32:33.159Z,95971
2022-12-20T09:33:41.913Z,95972
2022-12-20T09:34:51.588Z,95978
2022-12-20T09:36:00.280Z,95977
2022-12-20T09:37:09.963Z,95970
2022-12-20T09:38:18.718Z,95974
2022-12-20T09:39:28.342Z,95974
2022-12-20T09:40:38.030Z,95971
2022-12-20T09:41:46.732Z,95967
2022-12-20T09:42:56.443Z,95966
2022-12-20T09:44:06.111Z,95963
2022-12-20T09:45:14.771Z,95962
2022-12-20T09:46:24.595Z,95962
2022-12-20T09:47:32.219Z,95963
2022-12-20T09:48:41.909Z,95960
2022-12-20T09:49:51.585Z,95957
2022-12-20T09:50:59.264Z,95956
2022-12-20T09:52:08.963Z,95953
2022-12-20T09:53:18.600Z,95953
2022-12-20T09:54:26.294Z,95949
2022-12-20T09:55:36.000Z,95945
2022-12-20T09:56:45.685Z,95942
2022-12-20T09:57:54.364Z,95940
2022-12-20T09:59:04.061Z,95944
2022-12-20T10:00:12.735Z,95942
2022-12-20T10:01:25.105Z,95944
2022-12-20T10:02:56.944Z,95943
2022-12-20T10:03:43.865Z,95942
2022-12-20T10:04:53.565Z,95945
2022-12-20T10:06:03.258Z,95942
2022-12-20T10:07:11.767Z,95941
2022-12-20T10:08:21.445Z,95941
2022-12-20T10:09:29.142Z,95932
2022-12-20T10:10:37.813Z,95937
2022-12-20T10:11:50.659Z,95931
2022-12-20T10:12:57.165Z,95931
2022-12-20T10:14:06.945Z,95926
2022-12-20T10:15:15.586Z,95929
2022-12-20T10:16:24.468Z,95931
2022-12-20T10:17:34.036Z,95928
2022-12-20T10:18:41.748Z,95926
2022-12-20T10:19:50.426Z,95924
2022-12-20T10:21:00.122Z,95926
2022-12-20T10:22:08.780Z,95925
2022-12-20T10:23:18.479Z,95929
2022-12-20T10:24:29.191Z,95930
2022-12-20T10:25:37.856Z,95926
2022-12-20T10:26:47.524Z,95926
2022-12-20T10:27:56.222Z,95923
2022-12-20T10:29:05.055Z,95923
2022-12-20T10:30:14.800Z,95922
2022-12-20T10:31:23.518Z,95927
2022-12-20T10:32:33.165Z,95918
2022-12-20T10:33:41.856Z,95915
2022-12-20T10:34:51.509Z,95916
2022-12-20T10:35:59.180Z,95913
2022-12-20T10:37:08.880Z,95915
2022-12-20T10:38:18.957Z,95917
2022-12-20T10:39:27.749Z,95912
2022-12-20T10:41:01.892Z,95913
2022-12-20T10:41:48.132Z,95915
2022-12-20T10:42:56.779Z,95914
2022-12-20T10:44:05.481Z,95911
2022-12-20T10:45:13.161Z,95900
2022-12-20T10:46:22.877Z,95902
2022-12-20T10:47:32.490Z,95899
2022-12-20T10:48:42.190Z,95897
2022-12-20T10:49:50.871Z,95893
2022-12-20T10:50:59.560Z,95892
2022-12-20T10:52:10.215Z,95887
2022-12-20T10:53:19.890Z,95886
2022-12-20T10:54:28.567Z,95889
2022-12-20T10:55:37.269Z,95885
2022-12-20T10:56:46.985Z,95884
2022-12-20T10:57:54.645Z,95879
2022-12-20T10:59:04.401Z,95875
2022-12-20T11:00:14.253Z,95871
2022-12-20T11:01:24.146Z,95867
2022-12-20T11:02:39.890Z,95863
2022-12-20T11:03:44.425Z,95862
2022-12-20T11:04:53.102Z,95856
2022-12-20T11:06:02.808Z,95855
2022-12-20T11:07:11.508Z,95853
2022-12-20T11:08:42.906Z,95857
2022-12-20T11:09:31.849Z,95853
2022-12-20T11:10:41.518Z,95853
2022-12-20T11:11:51.216Z,95851
2022-12-20T11:12:59.911Z,95849
2022-12-20T11:14:09.612Z,95849
2022-12-20T11:15:19.450Z,95851
2022-12-20T11:16:30.175Z,95850
2022-12-20T11:17:39.814Z,95850
2022-12-20T11:18:49.613Z,95850
2022-12-20T11:19:59.310Z,95849
2022-12-20T11:21:14.703Z,95843
2022-12-20T11:22:19.760Z,95844
2022-12-20T11:23:28.449Z,95844
2022-12-20T11:24:38.149Z,95843
2022-12-20T11:25:47.860Z,95839
2022-12-20T11:26:56.520Z,95835
2022-12-20T11:28:06.231Z,95834
2022-12-20T11:29:15.925Z,95836
2022-12-20T11:30:25.628Z,95831
2022-12-20T11:31:33.563Z,95835
2022-12-20T11:32:48.555Z,95832
2022-12-20T11:33:52.855Z,95839
2022-12-20T11:35:01.542Z,95835
2022-12-20T11:36:10.227Z,95836
2022-12-20T11:37:18.927Z,95832
2022-12-20T11:38:27.618Z,95831
2022-12-20T11:39:37.338Z,95827
2022-12-20T11:40:47.011Z,95828
2022-12-20T11:41:55.730Z,95824
2022-12-20T11:43:05.446Z,95822
2022-12-20T11:44:25.031Z,95824
2022-12-20T11:45:24.070Z,95819
2022-12-20T11:46:33.463Z,95819
2022-12-20T11:47:43.148Z,95815
2022-12-20T11:48:52.854Z,95807
2022-12-20T11:50:02.490Z,95807
2022-12-20T11:51:16.030Z,95805
2022-12-20T11:52:22.851Z,95802
2022-12-20T11:53:31.551Z,95801
2022-12-20T11:54:41.251Z,95802
2022-12-20T11:55:49.926Z,95791
2022-12-20T11:56:59.596Z,95792
2022-12-20T11:58:18.364Z,95786
2022-12-20T11:59:19.957Z,95784
2022-12-20T12:00:28.630Z,95783
2022-12-20T12:01:38.567Z,95782
2022-12-20T12:02:51.698Z,95782
2022-12-20T12:03:58.821Z,95780
2022-12-20T12:05:08.539Z,95778
2022-12-20T12:06:17.229Z,95765
2022-12-20T12:07:27.899Z,95764
2022-12-20T12:08:37.622Z,95764
2022-12-20T12:09:47.292Z,95760
2022-12-20T12:10:56.999Z,95756
2022-12-20T12:12:08.075Z,95753
2022-12-20T12:13:14.404Z,95752
2022-12-20T12:14:24.081Z,95753
2022-12-20T12:15:32.781Z,95757
2022-12-20T12:16:42.571Z,95759
2022-12-20T12:17:51.219Z,95761
2022-12-20T12:19:00.942Z,95764
2022-12-20T12:20:10.591Z,95764
2022-12-20T12:21:19.308Z,95758
2022-12-20T12:22:29.054Z,95759
2022-12-20T12:23:37.776Z,95765
2022-12-20T12:24:47.507Z,95760
2022-12-20T12:25:57.164Z,95758
2022-12-20T12:27:07.996Z,95759
2022-12-20T12:28:14.522Z,95759
2022-12-20T12:29:24.218Z,95758
2022-12-20T12:30:32.903Z,95755
2022-12-20T12:31:42.635Z,95755
2022-12-20T12:32:52.271Z,95751
2022-12-20T12:34:01.022Z,95755
2022-12-20T12:35:10.669Z,95761
2022-12-20T12:36:20.319Z,95757
2022-12-20T12:37:30.029Z,95751
2022-12-20T12:38:37.748Z,95750
2022-12-20T12:39:45.566Z,95750
2022-12-20T12:40:55.230Z,95754
2022-12-20T12:42:03.901Z,95753
2022-12-20T12:43:11.579Z,95748
2022-12-20T12:44:20.330Z,95745
2022-12-20T12:45:30.117Z,95740
2022-12-20T12:46:38.814Z,95742
2022-12-20T12:47:47.392Z,95742
2022-12-20T12:48:57.056Z,95749
2022-12-20T12:50:06.752Z,95752
2022-12-20T12:51:16.491Z,95755
2022-12-20T12:52:25.211Z,95751
2022-12-20T12:53:34.861Z,95755
2022-12-20T12:54:43.546Z,95749
2022-12-20T12:55:58.269Z,95751
2022-12-20T12:57:03.908Z,95751
2022-12-20T12:58:12.601Z,95751
2022-12-20T12:59:22.301Z,95743
2022-12-20T13:00:31.020Z,95743
2022-12-20T13:01:47.907Z,95745
2022-12-20T13:02:57.624Z,95746
2022-12-20T13:04:05.131Z,95743
2022-12-20T13:05:15.392Z,95739
2022-12-20T13:06:25.584Z,95735
2022-12-20T13:07:34.215Z,95728
2022-12-20T13:08:43.954Z,95728
2022-12-20T13:09:52.859Z,95728
2022-12-20T13:11:01.582Z,95727
2022-12-20T13:12:11.917Z,95730
2022-12-20T13:13:19.909Z,95729
2022-12-20T13:14:28.634Z,95733
2022-12-20T13:15:38.314Z,95740
2022-12-20T13:17:11.280Z,95740
2022-12-20T13:17:57.657Z,95742
2022-12-20T13:19:06.271Z,95739
2022-12-20T13:20:14.952Z,95734
2022-12-20T13:21:24.615Z,95734
2022-12-20T13:22:33.427Z,95730
2022-12-20T13:23:43.034Z,95727
2022-12-20T13:24:52.716Z,95737
2022-12-20T13:26:01.430Z,95736
2022-12-20T13:27:10.102Z,95736
2022-12-20T13:28:18.787Z,95730
2022-12-20T13:29:28.466Z,95729
2022-12-20T13:30:38.201Z,95726
2022-12-20T13:31:52.618Z,95726
2022-12-20T13:32:56.457Z,95730
2022-12-20T13:34:07.136Z,95733
2022-12-20T13:35:15.878Z,95730
2022-12-20T13:36:24.530Z,95732
2022-12-20T13:37:33.218Z,95732
2022-12-20T13:38:42.896Z,95729
2022-12-20T13:39:52.575Z,95731
2022-12-20T13:41:00.276Z,95736
2022-12-20T13:42:09.965Z,95731
2022-12-20T13:43:19.681Z,95727
2022-12-20T13:44:28.332Z,95728
2022-12-20T13:45:37.062Z,95724
2022-12-20T13:46:45.828Z,95729
2022-12-20T13:47:55.526Z,95728
2022-12-20T13:49:06.313Z,95737
2022-12-20T13:50:14.995Z,95736
2022-12-20T13:51:24.669Z,95733
2022-12-20T13:52:34.390Z,95730
2022-12-20T13:53:43.049Z,95730
2022-12-20T13:54:51.801Z,95727
2022-12-20T13:56:01.422Z,95726
2022-12-20T13:57:11.130Z,95727
2022-12-20T13:58:20.794Z,95726
2022-12-20T13:59:29.463Z,95727
2022-12-20T14:00:38.148Z,95723
2022-12-20T14:01:47.900Z,95724
2022-12-20T14:02:55.611Z,95718
2022-12-20T14:04:04.275Z,95724
2022-12-20T14:05:11.881Z,95722
2022-12-20T14:06:26.488Z,95720
2022-12-20T14:07:31.211Z,95720
2022-12-20T14:08:39.899Z,95719
2022-12-20T14:09:48.540Z,95717
2022-12-20T14:10:58.230Z,95718
2022-12-20T14:12:07.907Z,95716
2022-12-20T14:13:17.571Z,95713
2022-12-20T14:14:26.254Z,95711
2022-12-20T14:15:35.939Z,95715
2022-12-20T14:16:45.684Z,95722
2022-12-20T14:17:54.364Z,95723
2022-12-20T14:19:03.035Z,95718
2022-12-20T14:20:13.708Z,95712
2022-12-20T14:21:21.386Z,95709
2022-12-20T14:22:31.072Z,95705
2022-12-20T14:23:39.793Z,95698
2022-12-20T14:24:48.467Z,95694
2022-12-20T14:25:58.172Z,95693
2022-12-20T14:27:07.869Z,95693
2022-12-20T14:28:21.511Z,95695
2022-12-20T14:29:28.242Z,95690
2022-12-20T14:30:37.983Z,95689
2022-12-20T14:31:47.666Z,95690
2022-12-20T14:32:56.307Z,95691
2022-12-20T14:34:05.003Z,95686
2022-12-20T14:35:14.711Z,95685
2022-12-20T14:36:24.403Z,95688
2022-12-20T14:37:34.087Z,95680
2022-12-20T14:38:42.865Z,95674
2022-12-20T14:39:51.522Z,95664
2022-12-20T14:41:01.285Z,95658
2022-12-20T14:42:10.996Z,95651
2022-12-20T14:43:19.641Z,95653
2022-12-20T14:44:28.339Z,95654
2022-12-20T14:45:38.013Z,95653
2022-12-20T14:46:49.086Z,95654
2022-12-20T14:47:57.487Z,95649
2022-12-20T14:49:06.223Z,95650
2022-12-20T14:50:15.895Z,95660
2022-12-20T14:51:23.550Z,95662